Time;durP1;ratioP1;P1;durP2;ratioP2;P2;SDS_P1;SDS_P2;PMS_P1;PMS_P2;Temp;Humidity;BMP_temperature;BMP_pressure;BME280_temperature;BME280_humidity;BME280_pressure;Samples;Min_cycle;Max_cycle;Signal;HPM_P1;HPM_P2
2023/12/15 00:01:06;;;;;;;;;4.33;4.33;;;;;21.77;50.27;101546.18;111983;1248;19574;-32
2023/12/15 00:03:44;;;;;;;;;7.00;4.00;;;;;21.78;50.46;101553.45;112156;1257;19984;-32
2023/12/15 00:06:11;;;;;;;;;4.00;4.00;;;;;21.78;50.37;101553.13;112041;1263;19307;-32
2023/12/15 00:08:39;;;;;;;;;4.00;4.00;;;;;21.78;50.53;101559.33;112150;1248;20005;-32
2023/12/15 00:11:06;;;;;;;;;4.50;4.00;;;;;21.77;50.44;101564.02;111993;1263;20133;-32
2023/12/15 00:13:33;;;;;;;;;2.00;2.00;;;;;21.77;50.45;101568.59;112113;1248;21936;-32
2023/12/15 00:16:01;;;;;;;;;2.00;2.00;;;;;21.77;50.55;101572.75;112009;1263;19327;-32
2023/12/15 00:18:28;;;;;;;;;4.00;4.00;;;;;21.77;50.24;101569.47;112142;1263;18589;-32
2023/12/15 00:20:56;;;;;;;;;4.00;4.00;;;;;21.76;50.22;101571.10;112020;1247;21827;-32
2023/12/15 00:23:23;;;;;;;;;4.00;4.00;;;;;21.77;50.17;101568.22;112182;1263;18552;-32
2023/12/15 00:25:50;;;;;;;;;4.00;4.00;;;;;21.76;50.27;101564.94;111988;1248;20035;-32
2023/12/15 00:28:18;;;;;;;;;4.00;4.00;;;;;21.76;50.18;101570.94;112155;1248;21035;-32
2023/12/15 00:30:45;;;;;;;;;4.00;4.00;;;;;21.75;49.98;101572.55;111991;1248;19959;-32
2023/12/15 00:33:13;;;;;;;;;2.00;2.00;;;;;21.74;50.11;101572.16;112160;1247;20576;-32
2023/12/15 00:35:40;;;;;;;;;3.00;3.00;;;;;21.75;50.26;101577.24;111974;1263;19361;-32
2023/12/15 00:38:07;;;;;;;;;4.50;4.50;;;;;21.75;49.97;101582.38;112154;1256;18731;-32
2023/12/15 00:40:35;;;;;;;;;3.00;3.00;;;;;21.75;50.10;101585.16;112005;1248;18651;-32
2023/12/15 00:43:02;;;;;;;;;2.00;2.00;;;;;21.75;49.98;101590.98;112038;1248;20870;-32
2023/12/15 00:45:30;;;;;;;;;3.00;2.00;;;;;21.74;49.90;101589.34;112018;1248;19655;-32
2023/12/15 00:47:57;;;;;;;;;4.00;2.00;;;;;21.75;49.96;101595.46;111976;1251;19916;-32
2023/12/15 00:50:28;;;;;;;;;4.00;4.00;;;;;21.74;49.97;101598.94;112056;1248;22070;-32
2023/12/15 00:52:56;;;;;;;;;4.00;4.00;;;;;21.74;49.75;101599.60;112025;1263;19543;-32
2023/12/15 00:55:23;;;;;;;;;4.33;4.33;;;;;21.74;49.92;101598.89;112170;1263;18748;-32
2023/12/15 00:57:50;;;;;;;;;2.00;2.00;;;;;21.74;49.84;101595.40;111988;1263;21028;-32
2023/12/15 01:00:18;;;;;;;;;4.00;4.00;;;;;21.74;49.65;101598.56;112152;1263;18199;-32
2023/12/15 01:02:45;;;;;;;;;2.00;2.00;;;;;21.74;49.74;101604.13;111991;1263;18864;-32
2023/12/15 01:05:13;;;;;;;;;2.00;2.00;;;;;21.74;49.70;101606.25;112142;1263;20701;-32
2023/12/15 01:07:40;;;;;;;;;4.50;3.00;;;;;21.72;49.60;101611.90;111964;1248;19683;-32
2023/12/15 01:10:08;;;;;;;;;4.00;2.00;;;;;21.73;49.65;101614.58;112017;1263;18599;-32
2023/12/15 01:12:35;;;;;;;;;5.00;4.00;;;;;21.73;49.55;101613.98;112018;1251;20745;-32
2023/12/15 01:15:02;;;;;;;;;5.00;4.00;;;;;21.73;49.52;101619.39;111953;1263;19593;-32
2023/12/15 01:17:30;;;;;;;;;2.00;2.00;;;;;21.74;49.56;101627.73;112006;1247;20085;-31
2023/12/15 01:19:57;;;;;;;;;2.67;2.00;;;;;21.73;49.51;101624.73;112023;1248;20770;-32
2023/12/15 01:22:25;;;;;;;;;4.00;2.00;;;;;21.73;49.37;101631.16;112002;1263;19579;-32
2023/12/15 01:24:52;;;;;;;;;4.00;2.00;;;;;21.73;49.48;101636.18;112007;1248;18608;-32
2023/12/15 01:27:19;;;;;;;;;4.00;4.00;;;;;21.72;49.53;101641.41;112062;1263;21074;-32
2023/12/15 01:29:47;;;;;;;;;7.00;4.00;;;;;21.73;49.34;101644.80;112004;1263;19661;-32
2023/12/15 01:32:14;;;;;;;;;2.67;2.67;;;;;21.73;49.44;101646.38;112022;1256;21074;-32
2023/12/15 01:34:42;;;;;;;;;4.00;2.00;;;;;21.71;49.42;101647.55;112037;1263;19216;-30
2023/12/15 01:37:09;;;;;;;;;5.00;4.00;;;;;21.72;49.52;101652.86;112046;1263;20715;-30
2023/12/15 01:39:37;;;;;;;;;4.00;4.00;;;;;21.71;49.38;101660.10;111888;1263;201192;-30
2023/12/15 01:42:04;;;;;;;;;2.00;2.00;;;;;21.72;49.55;101659.61;112092;1263;20845;-30
2023/12/15 01:44:33;;;;;;;;;2.00;2.00;;;;;21.71;49.38;101652.69;112033;1263;19531;-30
2023/12/15 01:47:00;;;;;;;;;4.00;2.00;;;;;21.71;49.42;101658.52;112004;1248;18585;-30
2023/12/15 01:49:28;;;;;;;;;2.00;2.00;;;;;21.69;49.40;101658.45;112030;1248;21090;-30
2023/12/15 01:51:55;;;;;;;;;3.00;2.00;;;;;21.70;49.42;101659.27;111983;1248;19885;-30
2023/12/15 01:54:23;;;;;;;;;4.00;2.00;;;;;21.70;49.46;101658.02;111994;1263;18632;-29
2023/12/15 01:56:50;;;;;;;;;2.00;2.00;;;;;21.70;49.39;101655.13;111986;1248;20745;-29
2023/12/15 01:59:17;;;;;;;;;2.00;2.00;;;;;21.69;49.54;101666.46;112061;1248;18201;-29
2023/12/15 02:01:45;;;;;;;;;2.00;2.00;;;;;21.69;49.39;101659.96;111979;1263;18606;-30
2023/12/15 02:04:12;;;;;;;;;2.00;2.00;;;;;21.68;49.40;101660.23;112031;1263;19402;-30
2023/12/15 02:06:40;;;;;;;;;4.00;4.00;;;;;21.69;49.28;101662.36;112029;1248;19595;-29
2023/12/15 02:09:07;;;;;;;;;4.00;2.00;;;;;21.69;49.28;101658.66;112065;1263;18759;-29
2023/12/15 02:11:34;;;;;;;;;2.00;2.00;;;;;21.69;49.10;101660.56;112125;1263;19333;-29
2023/12/15 02:14:02;;;;;;;;;4.00;4.00;;;;;21.68;49.40;101663.02;112171;1247;19624;-30
2023/12/15 02:16:30;;;;;;;;;4.00;4.00;;;;;21.69;49.22;101668.36;112035;1263;19988;-29
2023/12/15 02:18:57;;;;;;;;;3.00;3.00;;;;;21.69;49.27;101664.55;112079;1263;19311;-30
2023/12/15 02:21:24;;;;;;;;;5.00;4.00;;;;;21.69;49.04;101662.86;112029;1263;18211;-29
2023/12/15 02:23:52;;;;;;;;;4.00;4.00;;;;;21.69;49.11;101662.80;112103;1251;20107;-30
2023/12/15 02:26:19;;;;;;;;;2.00;2.00;;;;;21.67;49.13;101654.55;112069;1256;20703;-30
2023/12/15 02:28:47;;;;;;;;;2.00;2.00;;;;;21.68;48.99;101657.51;112039;1256;20244;-30
2023/12/15 02:31:14;;;;;;;;;4.00;2.00;;;;;21.68;49.01;101667.20;111987;1257;19982;-29
2023/12/15 02:33:41;;;;;;;;;3.00;3.00;;;;;21.69;49.10;101680.69;112047;1248;20815;-32
2023/12/15 02:36:09;;;;;;;;;1.67;1.67;;;;;21.69;49.00;101682.38;111986;1248;18393;-32
2023/12/15 02:38:36;;;;;;;;;4.00;2.00;;;;;21.68;48.86;101678.61;112086;1248;21245;-32
2023/12/15 02:41:04;;;;;;;;;4.00;4.00;;;;;21.69;48.91;101691.43;112001;1263;20668;-32
2023/12/15 02:43:31;;;;;;;;;4.00;4.00;;;;;21.67;48.89;101694.58;112070;1263;18599;-32
2023/12/15 02:45:58;;;;;;;;;2.00;2.00;;;;;21.67;48.97;101682.46;111988;1263;20239;-32
2023/12/15 02:48:26;;;;;;;;;2.00;2.00;;;;;21.67;48.96;101692.66;112142;1249;20672;-32
2023/12/15 02:50:53;;;;;;;;;4.00;4.00;;;;;21.67;49.11;101689.23;112049;1263;19568;-32
2023/12/15 02:53:21;;;;;;;;;4.00;4.00;;;;;21.66;48.81;101690.75;112093;1247;19825;-32
2023/12/15 02:55:49;;;;;;;;;2.67;2.00;;;;;21.67;49.09;101696.27;112059;1263;19457;-32
2023/12/15 02:58:16;;;;;;;;;4.00;4.00;;;;;21.67;48.88;101705.27;112111;1263;18496;-32
2023/12/15 03:00:43;;;;;;;;;2.00;2.00;;;;;21.67;48.84;101712.79;112032;1248;21328;-32
2023/12/15 03:03:11;;;;;;;;;2.00;2.00;;;;;21.67;48.95;101711.91;112160;1248;20796;-32
2023/12/15 03:05:38;;;;;;;;;4.00;2.00;;;;;21.67;48.71;101722.22;112018;1248;19899;-32
2023/12/15 03:08:06;;;;;;;;;2.00;2.00;;;;;21.67;48.91;101718.61;112130;1263;18631;-32
2023/12/15 03:10:33;;;;;;;;;4.00;2.00;;;;;21.66;48.82;101728.42;112060;1248;20683;-32
2023/12/15 03:13:01;;;;;;;;;3.00;3.00;;;;;21.65;48.68;101726.85;112108;1247;19546;-32
2023/12/15 03:15:28;;;;;;;;;4.00;3.00;;;;;21.65;49.06;101728.14;112059;1248;19989;-32
2023/12/15 03:17:55;;;;;;;;;4.00;4.00;;;;;21.65;48.73;101727.65;112082;1250;20753;-32
2023/12/15 03:20:23;;;;;;;;;2.00;2.00;;;;;21.65;48.75;101734.36;112123;1251;20800;-32
2023/12/15 03:22:50;;;;;;;;;2.00;2.00;;;;;21.65;48.81;101738.02;111993;1263;20133;-32
2023/12/15 03:25:18;;;;;;;;;4.00;4.00;;;;;21.64;48.59;101732.27;112111;1263;21829;-32
2023/12/15 03:27:45;;;;;;;;;4.00;4.00;;;;;21.64;48.97;101736.31;111975;1263;19566;-32
2023/12/15 03:30:13;;;;;;;;;2.00;2.00;;;;;21.64;48.70;101740.52;112123;1247;21338;-32
2023/12/15 03:32:40;;;;;;;;;2.00;2.00;;;;;21.65;48.74;101741.02;111943;1250;21996;-32
2023/12/15 03:35:07;;;;;;;;;4.00;3.00;;;;;21.64;48.85;101736.48;112168;1263;18605;-32
2023/12/15 03:37:35;;;;;;;;;4.00;2.00;;;;;21.64;48.63;101741.23;111993;1248;19954;-32
2023/12/15 03:40:03;;;;;;;;;2.00;2.00;;;;;21.63;48.58;101746.49;112154;1263;20670;-32
2023/12/15 03:42:31;;;;;;;;;4.00;2.00;;;;;21.63;48.79;101748.84;112035;1263;19553;-32
2023/12/15 03:44:58;;;;;;;;;4.50;3.00;;;;;21.63;48.68;101755.23;112107;1257;20627;-32
2023/12/15 03:47:25;;;;;;;;;4.00;4.00;;;;;21.63;48.79;101754.46;112057;1247;20679;-32
2023/12/15 03:49:53;;;;;;;;;4.00;2.00;;;;;21.64;48.42;101761.83;112170;1263;18185;-32
2023/12/15 03:52:20;;;;;;;;;4.00;2.00;;;;;21.63;48.71;101754.13;111982;1247;20048;-32
2023/12/15 03:54:48;;;;;;;;;2.00;2.00;;;;;21.63;48.42;101749.00;112175;1248;19754;-32
2023/12/15 03:57:15;;;;;;;;;4.00;4.00;;;;;21.63;48.32;101751.19;111992;1263;18889;-32
2023/12/15 03:59:43;;;;;;;;;2.00;2.00;;;;;21.62;48.62;101757.71;112125;1263;18717;-32
2023/12/15 04:02:14;;;;;;;;;5.00;4.00;;;;;21.63;48.56;101775.61;112001;1263;19226;-32
2023/12/15 04:04:42;;;;;;;;;2.00;2.00;;;;;21.63;48.68;101784.72;112131;1263;19546;-32
2023/12/15 04:07:09;;;;;;;;;4.00;4.00;;;;;21.62;48.45;101782.69;112052;1248;20029;-32
2023/12/15 04:09:37;;;;;;;;;2.00;2.00;;;;;21.63;48.35;101792.73;112075;1263;19477;-32
2023/12/15 04:12:04;;;;;;;;;4.67;4.00;;;;;21.65;48.57;101800.77;112082;1263;19580;-32
2023/12/15 04:14:31;;;;;;;;;2.00;2.00;;;;;21.63;48.52;101799.60;112090;1263;20015;-32
2023/12/15 04:16:59;;;;;;;;;2.00;2.00;;;;;21.62;48.42;101801.34;112087;1247;20731;-32
2023/12/15 04:19:26;;;;;;;;;4.00;4.00;;;;;21.61;48.69;101801.33;112125;1263;18847;-32
2023/12/15 04:21:55;;;;;;;;;5.00;4.00;;;;;21.62;48.29;101805.48;112100;1263;20015;-32
2023/12/15 04:24:22;;;;;;;;;2.00;2.00;;;;;21.61;48.26;101807.65;112149;1256;22300;-32
2023/12/15 04:26:49;;;;;;;;;3.33;2.00;;;;;21.62;48.18;101806.46;112045;1263;18234;-32
2023/12/15 04:29:17;;;;;;;;;2.00;2.00;;;;;21.62;48.41;101810.33;112132;1263;21244;-32
2023/12/15 04:31:44;;;;;;;;;4.00;4.00;;;;;21.62;48.25;101811.80;112117;1255;19353;-32
2023/12/15 04:34:12;;;;;;;;;2.00;2.00;;;;;21.62;48.17;101813.44;112264;1256;18913;-32
2023/12/15 04:36:39;;;;;;;;;7.00;5.00;;;;;21.61;48.39;101817.95;112134;1256;19012;-32
2023/12/15 04:39:07;;;;;;;;;4.00;4.00;;;;;21.61;48.38;101821.39;112167;1247;19772;-32
2023/12/15 04:41:35;;;;;;;;;4.00;4.00;;;;;21.61;48.35;101827.05;112030;1263;18235;-32
2023/12/15 04:44:02;;;;;;;;;2.00;2.00;;;;;21.59;48.32;101829.27;112162;1257;18648;-32
2023/12/15 04:46:29;;;;;;;;;4.00;4.00;;;;;21.60;48.34;101831.40;112038;1248;20770;-32
2023/12/15 04:48:57;;;;;;;;;5.00;4.00;;;;;21.59;48.40;101829.60;112117;1248;18608;-32
2023/12/15 04:51:24;;;;;;;;;5.00;5.00;;;;;21.58;48.20;101830.51;112034;1263;18952;-32
2023/12/15 04:53:52;;;;;;;;;2.00;2.00;;;;;21.59;48.40;101832.97;112054;1263;22343;-32
2023/12/15 04:56:19;;;;;;;;;4.00;4.00;;;;;21.59;48.11;101831.13;112069;1263;19703;-32
2023/12/15 04:58:46;;;;;;;;;4.00;4.00;;;;;21.58;48.07;101831.06;111983;1247;20114;-32
2023/12/15 05:01:14;;;;;;;;;4.00;4.00;;;;;21.59;48.39;101834.33;112084;1248;20910;-32
2023/12/15 05:03:41;;;;;;;;;4.50;4.00;;;;;21.58;48.08;101840.00;111978;1263;18171;-32
2023/12/15 05:06:09;;;;;;;;;5.00;5.00;;;;;21.58;48.31;101841.80;112122;1263;19954;-32
2023/12/15 05:08:36;;;;;;;;;2.00;2.00;;;;;21.57;48.31;101845.98;112016;1263;19377;-32
2023/12/15 05:11:03;;;;;;;;;2.00;2.00;;;;;21.58;48.39;101845.22;112142;1263;19558;-32
2023/12/15 05:13:31;;;;;;;;;4.00;4.00;;;;;21.58;48.24;101850.08;112006;1263;20534;-32
2023/12/15 05:15:58;;;;;;;;;4.33;4.33;;;;;21.58;48.27;101852.98;112175;1263;19231;-32
2023/12/15 05:18:26;;;;;;;;;5.00;5.00;;;;;21.59;47.95;101859.75;112010;1247;20086;-32
2023/12/15 05:20:53;;;;;;;;;5.00;5.00;;;;;21.58;48.07;101857.45;112141;1263;18635;-32
2023/12/15 05:23:21;;;;;;;;;4.50;4.00;;;;;21.58;48.04;101854.77;112007;1248;20893;-32
2023/12/15 05:25:48;;;;;;;;;5.00;4.00;;;;;21.58;48.26;101856.13;112114;1249;19979;-32
2023/12/15 05:28:15;;;;;;;;;4.67;4.00;;;;;21.57;48.06;101861.63;111956;1251;18728;-32
2023/12/15 05:30:43;;;;;;;;;4.00;4.00;;;;;21.58;47.97;101863.71;112099;1263;19342;-32
2023/12/15 05:33:10;;;;;;;;;4.00;4.00;;;;;21.57;47.94;101869.38;111931;1264;18251;-32
2023/12/15 05:35:38;;;;;;;;;5.00;5.00;;;;;21.58;48.02;101876.25;112085;1263;18682;-32
2023/12/15 05:38:05;;;;;;;;;5.00;5.00;;;;;21.58;47.90;101880.28;111959;1256;20801;-32
2023/12/15 05:40:32;;;;;;;;;7.00;5.00;;;;;21.57;48.14;101879.45;112084;1256;19426;-32
2023/12/15 05:43:00;;;;;;;;;5.00;4.00;;;;;21.57;48.08;101878.20;112007;1256;19864;-32
2023/12/15 05:45:27;;;;;;;;;7.00;5.00;;;;;21.57;47.89;101880.17;111995;1263;21004;-32
2023/12/15 05:47:55;;;;;;;;;7.00;7.00;;;;;21.57;48.06;101886.55;111962;1263;19713;-32
2023/12/15 05:50:22;;;;;;;;;7.00;7.00;;;;;21.57;48.03;101885.34;111948;1263;19125;-32
2023/12/15 05:52:50;;;;;;;;;7.50;6.00;;;;;21.56;48.10;101885.02;112023;1249;19384;-32
2023/12/15 05:55:17;;;;;;;;;6.00;6.00;;;;;21.56;48.12;101888.83;112005;1263;18226;-32
2023/12/15 05:57:44;;;;;;;;;5.00;5.00;;;;;21.56;47.97;101894.12;112079;1263;19999;-32
2023/12/15 06:00:12;;;;;;;;;5.00;5.00;;;;;21.56;47.91;101895.20;112064;1251;20770;-32
2023/12/15 06:02:40;;;;;;;;;7.00;5.00;;;;;21.56;48.00;101895.20;112054;1263;18706;-32
2023/12/15 06:05:07;;;;;;;;;6.33;5.67;;;;;21.56;47.99;101895.36;112008;1263;18613;-32
2023/12/15 06:07:35;;;;;;;;;5.00;5.00;;;;;21.55;47.92;101903.63;111985;1249;20731;-32
2023/12/15 06:10:02;;;;;;;;;4.33;4.33;;;;;21.55;47.83;101906.52;112028;1249;19686;-32
2023/12/15 06:12:30;;;;;;;;;6.00;6.00;;;;;21.55;47.91;101907.56;111974;1263;18678;-32
2023/12/15 06:14:57;;;;;;;;;6.00;5.00;;;;;21.56;47.70;101907.90;111972;1263;19306;-32
2023/12/15 06:17:24;;;;;;;;;8.00;5.00;;;;;21.56;47.82;101913.30;112015;1249;19569;-32
2023/12/15 06:19:52;;;;;;;;;5.00;4.00;;;;;21.55;47.90;101913.77;111985;1251;20391;-32
2023/12/15 06:22:19;;;;;;;;;7.50;7.00;;;;;21.56;47.72;101907.47;111974;1263;21796;-32
2023/12/15 06:24:47;;;;;;;;;5.00;5.00;;;;;21.54;47.74;101897.90;111946;1250;19662;-32
2023/12/15 06:27:14;;;;;;;;;7.00;5.00;;;;;21.54;47.76;101895.23;112010;1264;19970;-32
2023/12/15 06:29:42;;;;;;;;;5.00;5.00;;;;;21.54;47.69;101903.89;111972;1250;20593;-33
2023/12/15 06:32:10;;;;;;;;;7.00;7.00;;;;;21.54;47.85;101910.11;112010;1261;19829;-32
2023/12/15 06:34:38;;;;;;;;;7.00;7.00;;;;;21.55;47.73;101910.34;111950;1264;21079;-32
2023/12/15 06:37:05;;;;;;;;;5.00;5.00;;;;;21.65;47.39;101907.88;111969;1249;20940;-32
2023/12/15 06:39:32;;;;;;;;;7.00;5.00;;;;;21.65;47.35;101918.30;111987;1264;19543;-32
2023/12/15 06:42:02;;;;;;;;;5.00;4.50;;;;;21.65;47.77;101926.33;111955;1264;20112;-33
2023/12/15 06:44:30;;;;;;;;;7.00;6.00;;;;;21.66;47.81;101922.95;112010;1250;21072;-32
2023/12/15 06:46:57;;;;;;;;;5.00;5.00;;;;;21.66;48.03;101926.52;111982;1264;18182;-32
2023/12/15 06:49:30;;;;;;;;;10.00;8.00;;;;;21.69;47.67;101933.31;111993;1264;18603;-32
2023/12/15 06:51:57;;;;;;;;;6.33;6.33;;;;;21.75;47.49;101938.76;112009;1249;21105;-32
2023/12/15 06:54:25;;;;;;;;;10.00;9.00;;;;;21.73;48.04;101938.18;111996;1264;18569;-32
2023/12/15 06:56:52;;;;;;;;;10.00;8.00;;;;;21.67;48.14;101940.38;112072;1264;20004;-32
2023/12/15 06:59:19;;;;;;;;;7.00;7.00;;;;;21.67;48.20;101954.02;112028;1249;21996;-32
2023/12/15 07:01:47;;;;;;;;;11.00;11.00;;;;;21.67;48.38;101962.23;112044;1249;20181;-32
2023/12/15 07:04:14;;;;;;;;;7.00;7.00;;;;;21.69;48.08;101972.80;112013;1249;20235;-32
2023/12/15 07:06:42;;;;;;;;;7.67;7.67;;;;;21.72;48.41;101980.53;112031;1249;20841;-32
2023/12/15 07:09:11;;;;;;;;;10.00;8.00;;;;;21.72;47.15;101976.67;111991;1264;19510;-32
2023/12/15 07:11:39;;;;;;;;;14.00;11.00;;;;;21.59;47.26;101973.88;111981;1249;20082;-32
2023/12/15 07:14:07;;;;;;;;;13.50;11.00;;;;;21.59;46.82;101975.41;111987;1264;20753;-32
2023/12/15 07:16:34;;;;;;;;;13.00;11.00;;;;;21.61;46.24;101980.45;111937;1264;21479;-32
2023/12/15 07:19:01;;;;;;;;;16.50;13.00;;;;;21.65;45.96;101978.08;112015;1264;18736;-32
2023/12/15 07:21:29;;;;;;;;;10.00;9.00;;;;;21.66;45.04;101980.92;111958;1249;20852;-32
2023/12/15 07:23:56;;;;;;;;;11.00;9.00;;;;;21.62;44.51;101980.54;112022;1250;19947;-32
2023/12/15 07:26:24;;;;;;;;;13.00;10.00;;;;;21.63;44.00;101983.55;112002;1263;19906;-33
2023/12/15 07:28:51;;;;;;;;;10.00;10.00;;;;;21.65;43.81;101988.27;112098;1256;20555;-32
2023/12/15 07:31:19;;;;;;;;;9.00;8.00;;;;;21.62;43.91;101995.32;112009;1248;19997;-33
2023/12/15 07:33:46;;;;;;;;;13.00;11.00;;;;;21.61;43.89;102006.05;112083;1248;20110;-32
2023/12/15 07:36:14;;;;;;;;;10.00;8.00;;;;;21.55;43.20;102005.33;111993;1248;20722;-32
2023/12/15 07:38:41;;;;;;;;;12.00;12.00;;;;;21.54;43.55;102001.81;112099;1256;20172;-32
2023/12/15 07:41:08;;;;;;;;;11.00;11.00;;;;;21.55;43.02;102004.85;112029;1247;20102;-32
2023/12/15 07:43:36;;;;;;;;;7.67;7.00;;;;;21.46;43.31;101995.83;112129;1263;20519;-32
2023/12/15 07:46:03;;;;;;;;;11.00;10.00;;;;;21.42;43.86;102007.20;112045;1263;19945;-32
2023/12/15 07:48:31;;;;;;;;;10.00;8.00;;;;;21.42;44.03;101998.65;112095;1248;20061;-32
2023/12/15 07:50:58;;;;;;;;;10.50;9.00;;;;;21.48;44.04;101998.12;112041;1263;22509;-32
2023/12/15 07:53:25;;;;;;;;;10.00;10.00;;;;;21.48;43.89;102000.78;111993;1263;18575;-33
2023/12/15 07:55:53;;;;;;;;;11.00;10.50;;;;;21.48;44.29;102006.23;112044;1248;21166;-32
2023/12/15 07:58:20;;;;;;;;;11.00;8.00;;;;;21.48;44.52;102011.09;111978;1248;20834;-32
2023/12/15 08:00:48;;;;;;;;;8.00;8.00;;;;;21.49;44.68;102014.83;112098;1247;21308;-32
2023/12/15 08:03:15;;;;;;;;;7.00;7.00;;;;;21.49;44.86;102015.59;111992;1263;19963;-32
2023/12/15 08:05:43;;;;;;;;;8.00;7.00;;;;;21.53;44.94;102030.53;112111;1248;20799;-32
2023/12/15 08:08:10;;;;;;;;;5.00;5.00;;;;;21.53;44.95;102033.04;111984;1260;20881;-32
2023/12/15 08:10:37;;;;;;;;;7.50;6.50;;;;;21.58;44.93;102026.17;112107;1263;18525;-32
2023/12/15 08:13:09;;;;;;;;;8.00;7.00;;;;;21.54;45.31;102016.27;111929;1248;21887;-32
2023/12/15 08:15:37;;;;;;;;;7.00;7.00;;;;;21.58;45.09;102003.30;112118;1263;18398;-32
2023/12/15 08:18:05;;;;;;;;;8.00;8.00;;;;;21.53;45.46;101996.95;111988;1263;20149;-33
2023/12/15 08:20:32;;;;;;;;;7.00;7.00;;;;;21.53;45.86;102001.14;112144;1248;19566;-32
2023/12/15 08:22:59;;;;;;;;;7.00;5.00;;;;;21.53;46.19;102012.86;112034;1263;19560;-32
2023/12/15 08:25:27;;;;;;;;;8.00;7.00;;;;;21.57;46.47;102022.66;112078;1263;19947;-32
2023/12/15 08:27:54;;;;;;;;;5.00;5.00;;;;;21.59;46.65;102021.98;112036;1263;19403;-32
2023/12/15 08:30:22;;;;;;;;;7.33;7.00;;;;;21.67;47.78;102025.13;112097;1263;18181;-32
2023/12/15 08:32:49;;;;;;;;;7.00;5.00;;;;;21.65;48.54;102037.70;112045;1248;20064;-32
2023/12/15 08:35:16;;;;;;;;;7.67;7.00;;;;;21.70;48.58;102048.14;112091;1256;20691;-32
2023/12/15 08:37:44;;;;;;;;;8.00;7.00;;;;;21.72;48.75;102051.55;112086;1248;19897;-32
2023/12/15 08:40:11;;;;;;;;;4.50;4.50;;;;;21.71;48.39;102058.47;112092;1263;18816;-32
2023/12/15 08:42:39;;;;;;;;;5.00;5.00;;;;;21.67;48.52;102068.96;112138;1248;21657;-33
2023/12/15 08:45:06;;;;;;;;;6.00;6.00;;;;;21.62;48.46;102088.74;112161;1263;18207;-32
2023/12/15 08:47:34;;;;;;;;;7.00;5.00;;;;;21.61;48.50;102091.83;112102;1251;20077;-32
2023/12/15 08:50:01;;;;;;;;;8.00;7.00;;;;;21.59;48.73;102094.13;112121;1248;21240;-32
2023/12/15 08:52:29;;;;;;;;;8.00;7.00;;;;;21.59;48.58;102091.34;112113;1263;20839;-32
2023/12/15 08:54:56;;;;;;;;;7.00;7.00;;;;;21.60;48.59;102095.84;112157;1263;18731;-32
2023/12/15 08:57:24;;;;;;;;;5.00;5.00;;;;;21.59;48.47;102094.23;112140;1247;20718;-32
2023/12/15 08:59:51;;;;;;;;;8.00;7.00;;;;;21.58;48.44;102093.73;112113;1247;21152;-32
2023/12/15 09:02:19;;;;;;;;;5.00;5.00;;;;;21.58;48.29;102099.90;112153;1248;20047;-33
2023/12/15 09:04:47;;;;;;;;;4.00;4.00;;;;;21.56;48.59;102098.48;112101;1263;20845;-33
2023/12/15 09:07:14;;;;;;;;;7.00;5.00;;;;;21.56;48.81;102103.72;112056;1248;19639;-31
2023/12/15 09:09:42;;;;;;;;;6.00;5.00;;;;;21.57;48.77;102101.39;112073;1263;21068;-32
2023/12/15 09:12:09;;;;;;;;;5.00;5.00;;;;;21.56;48.69;102091.45;112086;1248;20751;-32
2023/12/15 09:14:37;;;;;;;;;5.00;5.00;;;;;21.54;48.81;102089.05;112121;1263;18226;-32
2023/12/15 09:17:04;;;;;;;;;6.00;5.00;;;;;21.53;48.59;102099.18;112023;1263;19974;-32
2023/12/15 09:19:31;;;;;;;;;5.00;5.00;;;;;21.51;48.82;102099.60;112116;1263;19353;-32
2023/12/15 09:21:59;;;;;;;;;6.00;5.00;;;;;21.52;48.74;102105.61;112114;1248;19694;-32
2023/12/15 09:24:26;;;;;;;;;5.00;5.00;;;;;21.51;48.75;102104.71;112076;1263;18539;-32
2023/12/15 09:26:54;;;;;;;;;5.00;5.00;;;;;21.59;48.14;102108.02;112123;1263;19992;-32
2023/12/15 09:29:22;;;;;;;;;6.00;5.00;;;;;21.63;48.16;102107.68;112103;1263;18130;-32
2023/12/15 09:31:49;;;;;;;;;7.67;7.00;;;;;21.64;47.95;102106.94;112098;1248;18739;-32
2023/12/15 09:34:17;;;;;;;;;7.00;5.00;;;;;21.63;48.36;102104.23;111978;1248;20962;-32
2023/12/15 09:36:44;;;;;;;;;4.00;4.00;;;;;21.61;48.45;102096.02;112033;1263;18769;-32
2023/12/15 09:39:12;;;;;;;;;6.00;5.00;;;;;21.61;49.08;102092.42;112082;1248;20109;-32
2023/12/15 09:41:39;;;;;;;;;5.00;5.00;;;;;21.62;48.96;102094.02;112073;1263;21409;-32
2023/12/15 09:44:06;;;;;;;;;5.00;5.00;;;;;21.68;48.84;102098.17;112001;1248;20026;-32
2023/12/15 09:46:34;;;;;;;;;5.00;5.00;;;;;21.73;49.02;102100.55;112134;1256;18670;-32
2023/12/15 09:49:01;;;;;;;;;7.00;5.00;;;;;21.74;49.30;102100.52;111952;1247;21165;-32
2023/12/15 09:51:29;;;;;;;;;6.00;6.00;;;;;21.70;49.66;102096.41;112145;1248;19587;-32
2023/12/15 09:53:56;;;;;;;;;2.00;2.00;;;;;21.74;49.09;102099.21;112016;1248;20037;-32
2023/12/15 09:56:23;;;;;;;;;5.00;5.00;;;;;21.76;49.23;102099.85;112154;1248;21077;-32
2023/12/15 09:58:51;;;;;;;;;5.00;4.00;;;;;21.73;50.82;102096.95;112033;1248;18643;-32
2023/12/15 10:01:18;;;;;;;;;6.00;5.00;;;;;21.75;51.64;102097.15;112124;1263;19978;-32
2023/12/15 10:03:46;;;;;;;;;4.00;4.00;;;;;21.75;51.26;102099.16;112037;1263;19390;-32
2023/12/15 10:06:13;;;;;;;;;5.00;4.33;;;;;21.78;50.94;102099.89;112120;1263;19558;-32
2023/12/15 10:08:41;;;;;;;;;4.00;4.00;;;;;21.78;50.36;102102.02;112023;1247;18966;-32
2023/12/15 10:11:08;;;;;;;;;7.00;5.00;;;;;21.80;50.39;102105.94;112140;1263;22473;-33
2023/12/15 10:13:36;;;;;;;;;5.00;4.00;;;;;21.81;50.37;102109.42;112002;1248;19569;-32
2023/12/15 10:16:03;;;;;;;;;7.00;6.00;;;;;21.82;50.78;102105.09;112168;1263;18785;-32
2023/12/15 10:18:31;;;;;;;;;4.00;4.00;;;;;21.87;50.62;102101.96;111988;1247;20925;-32
2023/12/15 10:20:58;;;;;;;;;5.00;5.00;;;;;21.82;50.85;102106.73;112179;1263;18368;-32
2023/12/15 10:23:25;;;;;;;;;5.00;5.00;;;;;21.86;50.77;102106.96;111952;1264;21180;-32
2023/12/15 10:25:53;;;;;;;;;5.00;5.00;;;;;21.83;50.53;102111.11;112166;1247;19327;-32
2023/12/15 10:28:21;;;;;;;;;4.00;4.00;;;;;21.82;50.69;102114.04;112030;1263;19605;-32
2023/12/15 10:30:48;;;;;;;;;4.33;4.00;;;;;21.84;50.38;102120.29;112128;1263;18650;-32
2023/12/15 10:33:16;;;;;;;;;5.00;5.00;;;;;21.80;50.25;102119.06;111983;1248;20714;-32
2023/12/15 10:35:44;;;;;;;;;5.00;5.00;;;;;21.72;50.58;102117.39;112110;1263;18294;-32
2023/12/15 10:38:11;;;;;;;;;4.33;4.00;;;;;21.65;50.79;102120.76;111974;1248;21468;-32
2023/12/15 10:40:39;;;;;;;;;7.00;5.00;;;;;21.63;50.56;102121.98;112107;1247;19541;-32
2023/12/15 10:43:06;;;;;;;;;4.00;4.00;;;;;21.63;50.30;102122.79;112045;1247;21111;-32
2023/12/15 10:45:33;;;;;;;;;5.00;4.00;;;;;21.62;50.32;102121.52;112112;1248;20258;-32
2023/12/15 10:48:01;;;;;;;;;4.00;4.00;;;;;21.61;50.22;102118.98;112072;1263;20747;-32
2023/12/15 10:50:28;;;;;;;;;5.00;4.00;;;;;21.60;50.30;102120.98;112168;1263;18202;-32
2023/12/15 10:52:56;;;;;;;;;4.00;4.00;;;;;21.59;49.90;102119.93;112072;1247;18812;-32
2023/12/15 10:55:25;;;;;;;;;4.00;4.00;;;;;21.57;50.11;102119.23;112159;1250;21166;-32
2023/12/15 10:57:52;;;;;;;;;5.00;4.00;;;;;21.58;50.11;102118.54;111981;1247;19762;-32
2023/12/15 11:00:20;;;;;;;;;5.00;4.00;;;;;21.60;49.85;102117.86;112059;1247;21646;-33
2023/12/15 11:02:47;;;;;;;;;5.00;5.00;;;;;21.57;49.80;102120.48;112008;1263;19381;-32
2023/12/15 11:05:15;;;;;;;;;4.00;4.00;;;;;21.56;49.78;102120.08;112010;1248;19863;-32
2023/12/15 11:07:42;;;;;;;;;5.00;4.00;;;;;21.56;49.61;102126.55;112007;1263;18640;-32
2023/12/15 11:10:12;;;;;;;;;2.67;2.67;;;;;21.55;49.50;102128.45;112030;1263;20784;-32
2023/12/15 11:12:40;;;;;;;;;5.00;5.00;;;;;21.54;49.45;102126.25;112045;1263;18154;-32
2023/12/15 11:15:07;;;;;;;;;4.00;4.00;;;;;21.53;49.65;102120.83;112000;1256;18902;-32
2023/12/15 11:17:34;;;;;;;;;2.00;2.00;;;;;21.53;49.38;102124.76;112026;1263;20703;-32